sensor_id;sensor_type;location;lat;lon;timestamp;P1;durP1;ratioP1;P2;durP2;ratioP2
18580;SDS011;9420;50.876;7.012;2023-05-10T00:00:34;13.07;;;9.57;;
18580;SDS011;9420;50.876;7.012;2023-05-10T00:03:01;13.90;;;9.47;;
18580;SDS011;9420;50.876;7.012;2023-05-10T00:05:30;15.27;;;10.37;;
18580;SDS011;9420;50.876;7.012;2023-05-10T00:07:57;13.53;;;10.80;;
18580;SDS011;9420;50.876;7.012;2023-05-10T00:10:25;16.67;;;11.53;;
18580;SDS011;9420;50.876;7.012;2023-05-10T00:12:52;19.73;;;11.77;;
18580;SDS011;9420;50.876;7.012;2023-05-10T00:15:19;19.80;;;13.00;;
18580;SDS011;9420;50.876;7.012;2023-05-10T00:17:47;20.10;;;13.87;;
18580;SDS011;9420;50.876;7.012;2023-05-10T00:20:14;23.53;;;15.53;;
18580;SDS011;9420;50.876;7.012;2023-05-10T00:22:41;27.33;;;15.30;;
18580;SDS011;9420;50.876;7.012;2023-05-10T00:25:08;25.77;;;15.50;;
18580;SDS011;9420;50.876;7.012;2023-05-10T00:27:37;23.73;;;14.57;;
18580;SDS011;9420;50.876;7.012;2023-05-10T00:30:04;23.70;;;14.17;;
18580;SDS011;9420;50.876;7.012;2023-05-10T00:32:35;20.33;;;13.37;;
18580;SDS011;9420;50.876;7.012;2023-05-10T00:35:02;18.90;;;13.30;;
18580;SDS011;9420;50.876;7.012;2023-05-10T00:37:30;18.80;;;12.70;;
18580;SDS011;9420;50.876;7.012;2023-05-10T00:39:57;20.40;;;13.07;;
18580;SDS011;9420;50.876;7.012;2023-05-10T00:42:24;20.33;;;13.20;;
18580;SDS011;9420;50.876;7.012;2023-05-10T00:44:52;20.13;;;13.67;;
18580;SDS011;9420;50.876;7.012;2023-05-10T00:47:19;22.43;;;14.30;;
18580;SDS011;9420;50.876;7.012;2023-05-10T00:49:46;20.63;;;14.33;;
18580;SDS011;9420;50.876;7.012;2023-05-10T00:52:14;23.23;;;15.83;;
18580;SDS011;9420;50.876;7.012;2023-05-10T00:54:41;21.37;;;14.10;;
18580;SDS011;9420;50.876;7.012;2023-05-10T00:57:08;20.17;;;14.03;;
18580;SDS011;9420;50.876;7.012;2023-05-10T00:59:36;23.27;;;15.63;;
18580;SDS011;9420;50.876;7.012;2023-05-10T01:02:05;23.03;;;14.77;;
18580;SDS011;9420;50.876;7.012;2023-05-10T01:04:32;21.30;;;14.03;;
18580;SDS011;9420;50.876;7.012;2023-05-10T01:07:02;23.07;;;15.10;;
18580;SDS011;9420;50.876;7.012;2023-05-10T01:09:29;25.13;;;14.87;;
18580;SDS011;9420;50.876;7.012;2023-05-10T01:11:56;24.43;;;15.73;;
18580;SDS011;9420;50.876;7.012;2023-05-10T01:14:24;22.37;;;14.90;;
18580;SDS011;9420;50.876;7.012;2023-05-10T01:16:53;21.63;;;14.90;;
18580;SDS011;9420;50.876;7.012;2023-05-10T01:19:23;22.80;;;14.83;;
18580;SDS011;9420;50.876;7.012;2023-05-10T01:21:56;22.93;;;14.97;;
18580;SDS011;9420;50.876;7.012;2023-05-10T01:24:45;29.93;;;15.30;;
18580;SDS011;9420;50.876;7.012;2023-05-10T01:27:58;23.17;;;15.10;;
18580;SDS011;9420;50.876;7.012;2023-05-10T01:31:26;24.47;;;15.90;;
18580;SDS011;9420;50.876;7.012;2023-05-10T01:34:23;25.03;;;15.93;;
18580;SDS011;9420;50.876;7.012;2023-05-10T01:37:02;21.80;;;14.87;;
18580;SDS011;9420;50.876;7.012;2023-05-10T01:39:36;25.27;;;15.17;;
18580;SDS011;9420;50.876;7.012;2023-05-10T01:42:13;26.37;;;16.33;;
18580;SDS011;9420;50.876;7.012;2023-05-10T01:44:48;25.50;;;15.37;;
18580;SDS011;9420;50.876;7.012;2023-05-10T01:47:27;25.53;;;15.17;;
18580;SDS011;9420;50.876;7.012;2023-05-10T01:50:04;24.63;;;16.17;;
18580;SDS011;9420;50.876;7.012;2023-05-10T01:52:41;21.47;;;14.23;;
18580;SDS011;9420;50.876;7.012;2023-05-10T01:55:16;22.63;;;14.70;;
18580;SDS011;9420;50.876;7.012;2023-05-10T01:57:47;21.37;;;13.53;;
18580;SDS011;9420;50.876;7.012;2023-05-10T02:00:25;20.13;;;14.03;;
18580;SDS011;9420;50.876;7.012;2023-05-10T02:02:54;22.37;;;14.40;;
18580;SDS011;9420;50.876;7.012;2023-05-10T02:05:24;19.83;;;13.17;;
18580;SDS011;9420;50.876;7.012;2023-05-10T02:07:55;22.50;;;14.00;;
18580;SDS011;9420;50.876;7.012;2023-05-10T02:10:25;19.93;;;13.80;;
18580;SDS011;9420;50.876;7.012;2023-05-10T02:12:54;19.00;;;12.00;;
18580;SDS011;9420;50.876;7.012;2023-05-10T02:15:25;19.47;;;13.23;;
18580;SDS011;9420;50.876;7.012;2023-05-10T02:17:54;20.23;;;12.90;;
18580;SDS011;9420;50.876;7.012;2023-05-10T02:20:25;20.00;;;12.77;;
18580;SDS011;9420;50.876;7.012;2023-05-10T02:22:53;20.83;;;13.27;;
18580;SDS011;9420;50.876;7.012;2023-05-10T02:25:23;23.43;;;13.73;;
18580;SDS011;9420;50.876;7.012;2023-05-10T02:27:53;19.23;;;12.27;;
18580;SDS011;9420;50.876;7.012;2023-05-10T02:30:25;21.00;;;13.07;;
18580;SDS011;9420;50.876;7.012;2023-05-10T02:32:54;20.97;;;13.43;;
18580;SDS011;9420;50.876;7.012;2023-05-10T02:35:24;21.03;;;13.83;;
18580;SDS011;9420;50.876;7.012;2023-05-10T02:37:54;23.40;;;13.07;;
18580;SDS011;9420;50.876;7.012;2023-05-10T02:40:25;21.27;;;13.43;;
18580;SDS011;9420;50.876;7.012;2023-05-10T02:42:54;20.13;;;12.77;;
18580;SDS011;9420;50.876;7.012;2023-05-10T02:45:24;21.40;;;12.70;;
18580;SDS011;9420;50.876;7.012;2023-05-10T02:47:56;20.20;;;13.23;;
18580;SDS011;9420;50.876;7.012;2023-05-10T02:50:25;21.63;;;13.23;;
18580;SDS011;9420;50.876;7.012;2023-05-10T02:53:01;18.80;;;12.80;;
18580;SDS011;9420;50.876;7.012;2023-05-10T02:55:36;20.13;;;12.43;;
18580;SDS011;9420;50.876;7.012;2023-05-10T02:58:08;21.53;;;13.33;;
18580;SDS011;9420;50.876;7.012;2023-05-10T03:00:35;23.07;;;13.03;;
18580;SDS011;9420;50.876;7.012;2023-05-10T03:03:02;21.30;;;13.20;;
18580;SDS011;9420;50.876;7.012;2023-05-10T03:05:31;18.43;;;12.27;;
18580;SDS011;9420;50.876;7.012;2023-05-10T03:07:58;18.10;;;11.23;;
18580;SDS011;9420;50.876;7.012;2023-05-10T03:10:29;17.73;;;11.37;;
18580;SDS011;9420;50.876;7.012;2023-05-10T03:13:02;19.53;;;11.30;;
18580;SDS011;9420;50.876;7.012;2023-05-10T03:15:47;24.80;;;11.97;;
18580;SDS011;9420;50.876;7.012;2023-05-10T03:18:27;17.40;;;11.33;;
18580;SDS011;9420;50.876;7.012;2023-05-10T03:21:04;16.20;;;10.23;;
18580;SDS011;9420;50.876;7.012;2023-05-10T03:23:40;17.77;;;11.77;;
18580;SDS011;9420;50.876;7.012;2023-05-10T03:26:12;21.50;;;12.53;;
18580;SDS011;9420;50.876;7.012;2023-05-10T03:28:47;20.13;;;11.67;;
18580;SDS011;9420;50.876;7.012;2023-05-10T03:31:17;17.63;;;11.27;;
18580;SDS011;9420;50.876;7.012;2023-05-10T03:33:47;21.23;;;12.20;;
18580;SDS011;9420;50.876;7.012;2023-05-10T03:36:16;20.30;;;12.03;;
18580;SDS011;9420;50.876;7.012;2023-05-10T03:38:44;25.37;;;12.67;;
18580;SDS011;9420;50.876;7.012;2023-05-10T03:41:12;22.73;;;12.70;;
18580;SDS011;9420;50.876;7.012;2023-05-10T03:43:39;20.63;;;12.70;;
18580;SDS011;9420;50.876;7.012;2023-05-10T03:46:06;21.17;;;12.73;;
18580;SDS011;9420;50.876;7.012;2023-05-10T03:48:33;21.67;;;13.27;;
18580;SDS011;9420;50.876;7.012;2023-05-10T03:51:00;26.00;;;13.43;;
18580;SDS011;9420;50.876;7.012;2023-05-10T03:53:28;21.77;;;12.57;;
18580;SDS011;9420;50.876;7.012;2023-05-10T03:55:55;21.83;;;13.10;;
18580;SDS011;9420;50.876;7.012;2023-05-10T03:58:22;20.43;;;12.20;;
18580;SDS011;9420;50.876;7.012;2023-05-10T04:00:50;21.43;;;12.20;;
18580;SDS011;9420;50.876;7.012;2023-05-10T04:03:17;20.03;;;12.13;;
18580;SDS011;9420;50.876;7.012;2023-05-10T04:05:45;17.87;;;11.60;;
18580;SDS011;9420;50.876;7.012;2023-05-10T04:08:12;18.43;;;11.50;;
18580;SDS011;9420;50.876;7.012;2023-05-10T04:10:41;18.03;;;11.37;;
18580;SDS011;9420;50.876;7.012;2023-05-10T04:13:08;20.17;;;12.93;;
18580;SDS011;9420;50.876;7.012;2023-05-10T04:15:36;23.03;;;12.30;;
18580;SDS011;9420;50.876;7.012;2023-05-10T04:18:03;19.40;;;12.17;;
18580;SDS011;9420;50.876;7.012;2023-05-10T04:20:31;22.87;;;11.83;;
18580;SDS011;9420;50.876;7.012;2023-05-10T04:22:59;25.57;;;12.90;;
18580;SDS011;9420;50.876;7.012;2023-05-10T04:25:26;22.23;;;12.77;;
18580;SDS011;9420;50.876;7.012;2023-05-10T04:27:54;22.20;;;13.63;;
18580;SDS011;9420;50.876;7.012;2023-05-10T04:30:21;17.90;;;12.00;;
18580;SDS011;9420;50.876;7.012;2023-05-10T04:32:48;24.10;;;13.53;;
18580;SDS011;9420;50.876;7.012;2023-05-10T04:35:16;21.73;;;12.40;;
18580;SDS011;9420;50.876;7.012;2023-05-10T04:37:43;21.93;;;14.17;;
18580;SDS011;9420;50.876;7.012;2023-05-10T04:40:10;26.60;;;13.93;;
18580;SDS011;9420;50.876;7.012;2023-05-10T04:42:39;23.37;;;14.07;;
18580;SDS011;9420;50.876;7.012;2023-05-10T04:45:16;25.37;;;14.67;;
18580;SDS011;9420;50.876;7.012;2023-05-10T04:47:44;22.00;;;14.93;;
18580;SDS011;9420;50.876;7.012;2023-05-10T04:50:13;25.40;;;15.40;;
18580;SDS011;9420;50.876;7.012;2023-05-10T04:52:40;33.23;;;17.03;;
18580;SDS011;9420;50.876;7.012;2023-05-10T04:55:08;26.00;;;15.30;;
18580;SDS011;9420;50.876;7.012;2023-05-10T04:57:35;25.80;;;16.43;;
18580;SDS011;9420;50.876;7.012;2023-05-10T05:00:02;28.53;;;15.30;;
18580;SDS011;9420;50.876;7.012;2023-05-10T05:02:31;24.63;;;15.20;;
18580;SDS011;9420;50.876;7.012;2023-05-10T05:04:58;25.37;;;16.47;;
18580;SDS011;9420;50.876;7.012;2023-05-10T05:07:25;29.63;;;17.07;;
18580;SDS011;9420;50.876;7.012;2023-05-10T05:09:52;26.37;;;15.33;;
18580;SDS011;9420;50.876;7.012;2023-05-10T05:12:19;29.90;;;16.90;;
18580;SDS011;9420;50.876;7.012;2023-05-10T05:14:46;27.07;;;17.47;;
18580;SDS011;9420;50.876;7.012;2023-05-10T05:17:13;26.20;;;16.87;;
18580;SDS011;9420;50.876;7.012;2023-05-10T05:19:42;27.53;;;16.70;;
18580;SDS011;9420;50.876;7.012;2023-05-10T05:22:09;26.80;;;16.63;;
18580;SDS011;9420;50.876;7.012;2023-05-10T05:24:36;30.60;;;16.20;;
18580;SDS011;9420;50.876;7.012;2023-05-10T05:27:03;26.43;;;15.37;;
18580;SDS011;9420;50.876;7.012;2023-05-10T05:29:31;24.73;;;16.07;;
18580;SDS011;9420;50.876;7.012;2023-05-10T05:31:58;29.50;;;16.87;;
18580;SDS011;9420;50.876;7.012;2023-05-10T05:34:25;27.03;;;16.37;;
18580;SDS011;9420;50.876;7.012;2023-05-10T05:36:54;27.30;;;17.87;;
18580;SDS011;9420;50.876;7.012;2023-05-10T05:39:21;32.03;;;16.73;;
18580;SDS011;9420;50.876;7.012;2023-05-10T05:41:48;28.07;;;17.50;;
18580;SDS011;9420;50.876;7.012;2023-05-10T05:44:15;22.27;;;15.07;;
18580;SDS011;9420;50.876;7.012;2023-05-10T05:46:42;27.60;;;16.23;;
18580;SDS011;9420;50.876;7.012;2023-05-10T05:49:09;28.93;;;16.70;;
18580;SDS011;9420;50.876;7.012;2023-05-10T05:51:37;27.13;;;17.27;;
18580;SDS011;9420;50.876;7.012;2023-05-10T05:54:05;24.90;;;15.27;;
18580;SDS011;9420;50.876;7.012;2023-05-10T05:56:32;26.10;;;15.80;;
18580;SDS011;9420;50.876;7.012;2023-05-10T05:58:59;30.93;;;18.27;;
18580;SDS011;9420;50.876;7.012;2023-05-10T06:01:27;27.30;;;16.67;;
18580;SDS011;9420;50.876;7.012;2023-05-10T06:03:54;27.63;;;18.17;;
18580;SDS011;9420;50.876;7.012;2023-05-10T06:06:21;28.57;;;17.13;;
18580;SDS011;9420;50.876;7.012;2023-05-10T06:08:48;29.67;;;17.73;;
18580;SDS011;9420;50.876;7.012;2023-05-10T06:11:16;25.10;;;17.00;;
18580;SDS011;9420;50.876;7.012;2023-05-10T06:13:43;31.20;;;17.33;;
18580;SDS011;9420;50.876;7.012;2023-05-10T06:16:11;24.27;;;15.53;;
18580;SDS011;9420;50.876;7.012;2023-05-10T06:18:38;26.10;;;15.67;;
18580;SDS011;9420;50.876;7.012;2023-05-10T06:21:05;31.60;;;16.20;;
18580;SDS011;9420;50.876;7.012;2023-05-10T06:23:32;28.67;;;16.37;;
18580;SDS011;9420;50.876;7.012;2023-05-10T06:25:59;27.50;;;17.50;;
18580;SDS011;9420;50.876;7.012;2023-05-10T06:28:28;31.40;;;18.33;;
18580;SDS011;9420;50.876;7.012;2023-05-10T06:30:56;30.53;;;17.37;;
18580;SDS011;9420;50.876;7.012;2023-05-10T06:33:23;27.53;;;15.83;;
18580;SDS011;9420;50.876;7.012;2023-05-10T06:35:50;26.93;;;14.73;;
18580;SDS011;9420;50.876;7.012;2023-05-10T06:38:18;23.53;;;14.07;;
18580;SDS011;9420;50.876;7.012;2023-05-10T06:40:45;25.53;;;14.80;;
18580;SDS011;9420;50.876;7.012;2023-05-10T06:43:12;22.50;;;13.50;;
18580;SDS011;9420;50.876;7.012;2023-05-10T06:45:41;27.30;;;14.17;;
18580;SDS011;9420;50.876;7.012;2023-05-10T06:48:08;22.67;;;13.00;;
18580;SDS011;9420;50.876;7.012;2023-05-10T06:50:35;26.07;;;13.80;;
18580;SDS011;9420;50.876;7.012;2023-05-10T06:53:03;21.93;;;13.10;;
18580;SDS011;9420;50.876;7.012;2023-05-10T06:55:30;25.97;;;13.60;;
18580;SDS011;9420;50.876;7.012;2023-05-10T06:57:57;23.33;;;13.40;;
18580;SDS011;9420;50.876;7.012;2023-05-10T07:00:24;22.30;;;12.50;;
18580;SDS011;9420;50.876;7.012;2023-05-10T07:02:52;28.90;;;14.27;;
18580;SDS011;9420;50.876;7.012;2023-05-10T07:05:20;22.73;;;13.37;;
18580;SDS011;9420;50.876;7.012;2023-05-10T07:07:47;23.23;;;13.87;;
18580;SDS011;9420;50.876;7.012;2023-05-10T07:10:14;24.47;;;14.50;;
18580;SDS011;9420;50.876;7.012;2023-05-10T07:12:42;22.63;;;13.53;;
18580;SDS011;9420;50.876;7.012;2023-05-10T07:15:09;20.53;;;12.07;;
18580;SDS011;9420;50.876;7.012;2023-05-10T07:17:37;19.80;;;12.87;;
18580;SDS011;9420;50.876;7.012;2023-05-10T07:20:06;20.20;;;11.77;;
18580;SDS011;9420;50.876;7.012;2023-05-10T07:22:35;24.10;;;12.77;;
18580;SDS011;9420;50.876;7.012;2023-05-10T07:25:02;24.57;;;13.90;;
18580;SDS011;9420;50.876;7.012;2023-05-10T07:27:30;26.90;;;13.50;;
18580;SDS011;9420;50.876;7.012;2023-05-10T07:29:57;23.57;;;14.47;;
18580;SDS011;9420;50.876;7.012;2023-05-10T07:32:25;27.73;;;13.80;;
18580;SDS011;9420;50.876;7.012;2023-05-10T07:34:52;22.70;;;13.60;;
18580;SDS011;9420;50.876;7.012;2023-05-10T07:37:20;26.57;;;13.60;;
18580;SDS011;9420;50.876;7.012;2023-05-10T07:39:48;27.23;;;14.73;;
18580;SDS011;9420;50.876;7.012;2023-05-10T07:42:15;25.57;;;13.23;;
18580;SDS011;9420;50.876;7.012;2023-05-10T07:44:42;24.37;;;13.10;;
18580;SDS011;9420;50.876;7.012;2023-05-10T07:47:09;22.37;;;13.70;;
18580;SDS011;9420;50.876;7.012;2023-05-10T07:49:36;23.27;;;14.63;;
18580;SDS011;9420;50.876;7.012;2023-05-10T07:52:03;24.77;;;13.07;;
18580;SDS011;9420;50.876;7.012;2023-05-10T07:54:32;25.57;;;12.83;;
18580;SDS011;9420;50.876;7.012;2023-05-10T07:56:59;24.23;;;12.50;;
18580;SDS011;9420;50.876;7.012;2023-05-10T07:59:26;20.27;;;13.17;;
18580;SDS011;9420;50.876;7.012;2023-05-10T08:01:54;21.60;;;12.53;;
18580;SDS011;9420;50.876;7.012;2023-05-10T08:04:21;24.60;;;13.13;;
18580;SDS011;9420;50.876;7.012;2023-05-10T08:06:48;20.90;;;11.13;;
18580;SDS011;9420;50.876;7.012;2023-05-10T08:09:15;19.87;;;11.37;;
18580;SDS011;9420;50.876;7.012;2023-05-10T08:11:44;18.53;;;11.30;;
18580;SDS011;9420;50.876;7.012;2023-05-10T08:14:11;17.73;;;11.00;;
18580;SDS011;9420;50.876;7.012;2023-05-10T08:16:38;22.77;;;11.77;;
18580;SDS011;9420;50.876;7.012;2023-05-10T08:19:08;21.73;;;12.20;;
18580;SDS011;9420;50.876;7.012;2023-05-10T08:21:35;15.60;;;10.43;;
18580;SDS011;9420;50.876;7.012;2023-05-10T08:24:02;11.50;;;8.87;;
18580;SDS011;9420;50.876;7.012;2023-05-10T08:26:30;14.97;;;9.67;;
18580;SDS011;9420;50.876;7.012;2023-05-10T08:29:00;19.87;;;9.87;;
18580;SDS011;9420;50.876;7.012;2023-05-10T08:31:27;15.83;;;9.73;;
18580;SDS011;9420;50.876;7.012;2023-05-10T08:33:54;17.40;;;9.03;;
18580;SDS011;9420;50.876;7.012;2023-05-10T08:36:21;14.93;;;7.90;;
18580;SDS011;9420;50.876;7.012;2023-05-10T08:38:49;8.73;;;5.90;;
18580;SDS011;9420;50.876;7.012;2023-05-10T08:41:17;10.40;;;5.73;;
18580;SDS011;9420;50.876;7.012;2023-05-10T08:43:47;11.00;;;3.90;;
18580;SDS011;9420;50.876;7.012;2023-05-10T08:46:16;3.97;;;2.83;;
18580;SDS011;9420;50.876;7.012;2023-05-10T08:48:45;4.23;;;2.30;;
18580;SDS011;9420;50.876;7.012;2023-05-10T08:51:17;7.07;;;2.63;;
18580;SDS011;9420;50.876;7.012;2023-05-10T08:53:48;4.00;;;2.70;;
18580;SDS011;9420;50.876;7.012;2023-05-10T08:56:17;2.73;;;1.37;;
18580;SDS011;9420;50.876;7.012;2023-05-10T08:58:45;3.63;;;2.13;;
18580;SDS011;9420;50.876;7.012;2023-05-10T09:01:13;3.53;;;2.10;;
18580;SDS011;9420;50.876;7.012;2023-05-10T09:03:46;3.07;;;2.37;;
18580;SDS011;9420;50.876;7.012;2023-05-10T09:06:14;3.87;;;2.73;;
18580;SDS011;9420;50.876;7.012;2023-05-10T09:08:41;3.63;;;2.70;;
18580;SDS011;9420;50.876;7.012;2023-05-10T09:11:09;5.80;;;3.13;;
18580;SDS011;9420;50.876;7.012;2023-05-10T09:13:39;5.07;;;3.13;;
18580;SDS011;9420;50.876;7.012;2023-05-10T09:16:06;4.13;;;3.17;;
18580;SDS011;9420;50.876;7.012;2023-05-10T09:18:35;6.13;;;3.83;;
18580;SDS011;9420;50.876;7.012;2023-05-10T09:21:02;6.47;;;3.90;;
18580;SDS011;9420;50.876;7.012;2023-05-10T09:23:29;13.17;;;6.80;;
18580;SDS011;9420;50.876;7.012;2023-05-10T09:26:03;7.57;;;5.27;;
18580;SDS011;9420;50.876;7.012;2023-05-10T09:28:32;7.33;;;5.00;;
18580;SDS011;9420;50.876;7.012;2023-05-10T09:30:59;4.93;;;4.23;;
18580;SDS011;9420;50.876;7.012;2023-05-10T09:33:26;4.80;;;4.00;;
18580;SDS011;9420;50.876;7.012;2023-05-10T09:35:54;3.90;;;3.00;;
18580;SDS011;9420;50.876;7.012;2023-05-10T09:38:44;8.60;;;3.03;;
18580;SDS011;9420;50.876;7.012;2023-05-10T09:41:16;5.43;;;3.77;;
18580;SDS011;9420;50.876;7.012;2023-05-10T09:43:45;5.03;;;2.83;;
18580;SDS011;9420;50.876;7.012;2023-05-10T09:46:12;5.57;;;3.40;;
18580;SDS011;9420;50.876;7.012;2023-05-10T09:48:41;3.53;;;2.80;;
18580;SDS011;9420;50.876;7.012;2023-05-10T09:51:14;4.97;;;2.50;;
18580;SDS011;9420;50.876;7.012;2023-05-10T09:53:46;4.47;;;2.73;;
18580;SDS011;9420;50.876;7.012;2023-05-10T09:56:18;6.43;;;2.83;;
18580;SDS011;9420;50.876;7.012;2023-05-10T09:59:03;5.10;;;3.93;;
18580;SDS011;9420;50.876;7.012;2023-05-10T10:01:31;8.43;;;3.83;;
18580;SDS011;9420;50.876;7.012;2023-05-10T10:03:59;11.03;;;5.33;;
18580;SDS011;9420;50.876;7.012;2023-05-10T10:06:36;8.13;;;5.00;;
18580;SDS011;9420;50.876;7.012;2023-05-10T10:09:03;10.63;;;6.00;;
18580;SDS011;9420;50.876;7.012;2023-05-10T10:11:33;11.03;;;7.33;;
18580;SDS011;9420;50.876;7.012;2023-05-10T10:14:02;12.83;;;7.97;;
18580;SDS011;9420;50.876;7.012;2023-05-10T10:16:30;15.83;;;8.17;;
18580;SDS011;9420;50.876;7.012;2023-05-10T10:18:58;17.33;;;9.13;;
18580;SDS011;9420;50.876;7.012;2023-05-10T10:21:25;17.63;;;9.37;;
18580;SDS011;9420;50.876;7.012;2023-05-10T10:23:54;15.07;;;8.20;;
18580;SDS011;9420;50.876;7.012;2023-05-10T10:26:21;11.80;;;7.27;;
18580;SDS011;9420;50.876;7.012;2023-05-10T10:28:51;12.37;;;7.70;;
18580;SDS011;9420;50.876;7.012;2023-05-10T10:31:39;13.27;;;8.00;;
18580;SDS011;9420;50.876;7.012;2023-05-10T10:34:17;10.73;;;6.73;;
18580;SDS011;9420;50.876;7.012;2023-05-10T10:36:53;13.87;;;7.57;;
18580;SDS011;9420;50.876;7.012;2023-05-10T10:39:24;14.13;;;8.50;;
18580;SDS011;9420;50.876;7.012;2023-05-10T10:41:52;11.30;;;7.50;;
18580;SDS011;9420;50.876;7.012;2023-05-10T10:44:34;10.80;;;7.37;;
18580;SDS011;9420;50.876;7.012;2023-05-10T10:47:22;10.70;;;6.00;;
18580;SDS011;9420;50.876;7.012;2023-05-10T10:50:02;13.10;;;8.03;;
18580;SDS011;9420;50.876;7.012;2023-05-10T10:52:32;14.77;;;8.03;;
18580;SDS011;9420;50.876;7.012;2023-05-10T10:55:02;14.87;;;8.67;;
18580;SDS011;9420;50.876;7.012;2023-05-10T10:57:35;12.27;;;7.07;;
18580;SDS011;9420;50.876;7.012;2023-05-10T11:00:24;9.27;;;6.00;;
18580;SDS011;9420;50.876;7.012;2023-05-10T11:02:56;9.37;;;5.73;;
18580;SDS011;9420;50.876;7.012;2023-05-10T11:05:25;12.67;;;6.47;;
18580;SDS011;9420;50.876;7.012;2023-05-10T11:08:17;9.67;;;5.20;;
18580;SDS011;9420;50.876;7.012;2023-05-10T11:11:02;7.03;;;5.00;;
18580;SDS011;9420;50.876;7.012;2023-05-10T11:13:38;10.63;;;5.90;;
18580;SDS011;9420;50.876;7.012;2023-05-10T11:16:11;8.27;;;4.80;;
18580;SDS011;9420;50.876;7.012;2023-05-10T11:18:41;12.00;;;6.17;;
18580;SDS011;9420;50.876;7.012;2023-05-10T11:21:20;10.20;;;5.87;;
18580;SDS011;9420;50.876;7.012;2023-05-10T11:23:47;10.83;;;5.13;;
18580;SDS011;9420;50.876;7.012;2023-05-10T11:26:18;8.17;;;5.57;;
18580;SDS011;9420;50.876;7.012;2023-05-10T11:28:48;4.93;;;3.60;;
18580;SDS011;9420;50.876;7.012;2023-05-10T11:31:16;3.97;;;3.23;;
18580;SDS011;9420;50.876;7.012;2023-05-10T11:33:45;4.30;;;2.87;;
18580;SDS011;9420;50.876;7.012;2023-05-10T11:36:15;5.43;;;3.30;;
18580;SDS011;9420;50.876;7.012;2023-05-10T11:38:43;4.90;;;3.23;;
18580;SDS011;9420;50.876;7.012;2023-05-10T11:41:11;3.80;;;2.73;;
18580;SDS011;9420;50.876;7.012;2023-05-10T11:43:41;3.10;;;2.70;;
18580;SDS011;9420;50.876;7.012;2023-05-10T11:46:10;4.83;;;3.37;;
18580;SDS011;9420;50.876;7.012;2023-05-10T11:48:39;6.30;;;2.90;;
18580;SDS011;9420;50.876;7.012;2023-05-10T11:51:07;3.10;;;2.03;;
18580;SDS011;9420;50.876;7.012;2023-05-10T11:53:35;3.27;;;2.60;;
18580;SDS011;9420;50.876;7.012;2023-05-10T11:56:03;4.07;;;3.03;;
18580;SDS011;9420;50.876;7.012;2023-05-10T11:58:31;3.80;;;2.90;;
18580;SDS011;9420;50.876;7.012;2023-05-10T12:01:01;3.70;;;2.67;;
18580;SDS011;9420;50.876;7.012;2023-05-10T12:03:29;2.43;;;2.20;;
18580;SDS011;9420;50.876;7.012;2023-05-10T12:05:57;2.93;;;2.40;;
18580;SDS011;9420;50.876;7.012;2023-05-10T12:08:28;3.30;;;2.10;;
18580;SDS011;9420;50.876;7.012;2023-05-10T12:11:04;3.77;;;2.47;;
18580;SDS011;9420;50.876;7.012;2023-05-10T12:13:37;2.83;;;2.03;;
18580;SDS011;9420;50.876;7.012;2023-05-10T12:16:13;1.63;;;1.50;;
18580;SDS011;9420;50.876;7.012;2023-05-10T12:18:43;2.03;;;1.67;;
18580;SDS011;9420;50.876;7.012;2023-05-10T12:21:11;1.77;;;1.53;;
18580;SDS011;9420;50.876;7.012;2023-05-10T12:23:39;2.23;;;2.03;;
18580;SDS011;9420;50.876;7.012;2023-05-10T12:26:06;2.10;;;1.47;;
18580;SDS011;9420;50.876;7.012;2023-05-10T12:28:36;4.47;;;1.80;;
18580;SDS011;9420;50.876;7.012;2023-05-10T12:31:05;2.40;;;1.70;;
18580;SDS011;9420;50.876;7.012;2023-05-10T12:33:38;2.23;;;1.63;;
18580;SDS011;9420;50.876;7.012;2023-05-10T12:36:08;1.83;;;1.63;;
18580;SDS011;9420;50.876;7.012;2023-05-10T12:38:36;1.23;;;1.13;;
18580;SDS011;9420;50.876;7.012;2023-05-10T12:41:05;1.87;;;1.37;;
18580;SDS011;9420;50.876;7.012;2023-05-10T12:43:35;3.10;;;1.40;;
18580;SDS011;9420;50.876;7.012;2023-05-10T12:46:06;1.87;;;1.60;;
18580;SDS011;9420;50.876;7.012;2023-05-10T12:48:35;5.10;;;1.47;;
18580;SDS011;9420;50.876;7.012;2023-05-10T12:51:05;1.23;;;1.13;;
18580;SDS011;9420;50.876;7.012;2023-05-10T12:53:34;3.00;;;1.33;;
18580;SDS011;9420;50.876;7.012;2023-05-10T12:56:01;1.33;;;0.73;;
18580;SDS011;9420;50.876;7.012;2023-05-10T12:58:29;1.07;;;0.97;;
18580;SDS011;9420;50.876;7.012;2023-05-10T13:00:56;1.10;;;0.57;;
18580;SDS011;9420;50.876;7.012;2023-05-10T13:03:23;1.10;;;0.80;;
18580;SDS011;9420;50.876;7.012;2023-05-10T13:05:52;4.23;;;0.80;;
18580;SDS011;9420;50.876;7.012;2023-05-10T13:08:19;0.90;;;0.77;;
18580;SDS011;9420;50.876;7.012;2023-05-10T13:10:46;1.10;;;0.93;;
18580;SDS011;9420;50.876;7.012;2023-05-10T13:13:15;1.33;;;1.20;;
18580;SDS011;9420;50.876;7.012;2023-05-10T13:15:43;1.00;;;0.90;;
18580;SDS011;9420;50.876;7.012;2023-05-10T13:18:10;1.23;;;0.77;;
18580;SDS011;9420;50.876;7.012;2023-05-10T13:20:37;1.02;;;0.68;;
18580;SDS011;9420;50.876;7.012;2023-05-10T13:23:05;0.97;;;0.87;;
18580;SDS011;9420;50.876;7.012;2023-05-10T13:25:32;0.60;;;0.60;;
18580;SDS011;9420;50.876;7.012;2023-05-10T13:27:59;1.30;;;1.10;;
18580;SDS011;9420;50.876;7.012;2023-05-10T13:30:27;0.80;;;0.67;;
18580;SDS011;9420;50.876;7.012;2023-05-10T13:32:54;0.80;;;0.60;;
18580;SDS011;9420;50.876;7.012;2023-05-10T13:35:21;1.53;;;0.93;;
18580;SDS011;9420;50.876;7.012;2023-05-10T13:37:48;0.73;;;0.63;;
18580;SDS011;9420;50.876;7.012;2023-05-10T13:40:17;2.27;;;0.63;;
18580;SDS011;9420;50.876;7.012;2023-05-10T13:42:44;1.20;;;0.88;;
18580;SDS011;9420;50.876;7.012;2023-05-10T13:45:12;3.47;;;1.23;;
18580;SDS011;9420;50.876;7.012;2023-05-10T13:47:39;2.35;;;0.80;;
18580;SDS011;9420;50.876;7.012;2023-05-10T13:50:06;1.50;;;0.80;;
18580;SDS011;9420;50.876;7.012;2023-05-10T13:52:34;1.42;;;0.85;;
18580;SDS011;9420;50.876;7.012;2023-05-10T13:55:01;1.23;;;0.70;;
18580;SDS011;9420;50.876;7.012;2023-05-10T13:57:30;1.47;;;0.83;;
18580;SDS011;9420;50.876;7.012;2023-05-10T13:59:57;1.90;;;0.97;;
18580;SDS011;9420;50.876;7.012;2023-05-10T14:02:24;1.13;;;0.70;;
18580;SDS011;9420;50.876;7.012;2023-05-10T14:04:52;0.90;;;0.60;;
18580;SDS011;9420;50.876;7.012;2023-05-10T14:07:19;1.00;;;0.90;;
18580;SDS011;9420;50.876;7.012;2023-05-10T14:09:46;4.00;;;0.90;;
18580;SDS011;9420;50.876;7.012;2023-05-10T14:12:13;0.83;;;0.70;;
18580;SDS011;9420;50.876;7.012;2023-05-10T14:14:42;2.10;;;1.00;;
18580;SDS011;9420;50.876;7.012;2023-05-10T14:17:10;2.40;;;0.60;;
18580;SDS011;9420;50.876;7.012;2023-05-10T14:19:37;1.53;;;0.67;;
18580;SDS011;9420;50.876;7.012;2023-05-10T14:22:04;1.50;;;0.70;;
18580;SDS011;9420;50.876;7.012;2023-05-10T14:24:31;0.60;;;0.50;;
18580;SDS011;9420;50.876;7.012;2023-05-10T14:26:58;1.33;;;0.60;;
18580;SDS011;9420;50.876;7.012;2023-05-10T14:29:25;1.30;;;0.60;;
18580;SDS011;9420;50.876;7.012;2023-05-10T14:31:53;0.63;;;0.63;;
18580;SDS011;9420;50.876;7.012;2023-05-10T14:34:20;1.03;;;0.70;;
18580;SDS011;9420;50.876;7.012;2023-05-10T14:36:47;1.63;;;0.60;;
18580;SDS011;9420;50.876;7.012;2023-05-10T14:39:14;1.03;;;0.47;;
18580;SDS011;9420;50.876;7.012;2023-05-10T14:41:41;0.47;;;0.47;;
18580;SDS011;9420;50.876;7.012;2023-05-10T14:44:10;0.73;;;0.70;;
18580;SDS011;9420;50.876;7.012;2023-05-10T14:46:37;1.63;;;0.70;;
18580;SDS011;9420;50.876;7.012;2023-05-10T14:49:06;1.17;;;0.80;;
18580;SDS011;9420;50.876;7.012;2023-05-10T14:51:33;1.30;;;1.10;;
18580;SDS011;9420;50.876;7.012;2023-05-10T14:54:01;0.67;;;0.60;;
18580;SDS011;9420;50.876;7.012;2023-05-10T14:56:28;1.73;;;0.37;;
18580;SDS011;9420;50.876;7.012;2023-05-10T14:58:55;0.50;;;0.50;;